createdAt,value
2022-12-23T00:01:02.199Z,11.17
2022-12-23T00:06:08.678Z,11.16
2022-12-23T00:11:17.356Z,11.20
2022-12-23T00:16:18.819Z,11.23
2022-12-23T00:21:20.685Z,11.18
2022-12-23T00:26:27.611Z,11.20
2022-12-23T00:31:28.990Z,11.22
2022-12-23T00:36:30.810Z,11.17
2022-12-23T00:41:51.541Z,11.16
2022-12-23T00:46:52.940Z,11.17
2022-12-23T00:51:54.244Z,11.19
2022-12-23T00:56:55.581Z,11.19
2022-12-23T01:02:15.786Z,11.29
2022-12-23T01:07:17.268Z,11.36
2022-12-23T01:12:18.950Z,11.34
2022-12-23T01:17:20.396Z,11.32
2022-12-23T01:22:21.757Z,11.35
2022-12-23T01:27:23.079Z,11.32
2022-12-23T01:32:24.429Z,11.29
2022-12-23T01:37:25.771Z,11.34
2022-12-23T01:42:46.489Z,11.44
2022-12-23T01:48:00.459Z,11.37
2022-12-23T01:53:08.687Z,11.30
2022-12-23T01:58:34.873Z,11.27
2022-12-23T02:03:42.826Z,11.27
2022-12-23T02:09:02.899Z,11.25
2022-12-23T02:14:30.341Z,11.23
2022-12-23T02:20:05.349Z,11.22
2022-12-23T02:26:02.169Z,11.23
2022-12-23T02:31:15.596Z,11.15
2022-12-23T02:36:25.915Z,11.11
2022-12-23T02:41:37.937Z,11.19
2022-12-23T02:46:46.201Z,11.18
2022-12-23T02:51:52.493Z,11.21
2022-12-23T02:56:54.257Z,11.22
2022-12-23T03:01:57.238Z,11.28
2022-12-23T03:07:06.947Z,11.21
2022-12-23T03:12:23.610Z,11.15
2022-12-23T03:17:58.514Z,11.11
2022-12-23T03:23:18.651Z,11.15
2022-12-23T03:28:31.500Z,11.16
2022-12-23T03:33:39.453Z,11.13
2022-12-23T03:38:43.683Z,11.12
2022-12-23T03:43:54.789Z,11.05
2022-12-23T03:49:01.079Z,10.93
2022-12-23T03:54:09.302Z,10.97
2022-12-23T03:59:19.507Z,10.92
2022-12-23T04:04:26.935Z,10.91
2022-12-23T04:09:28.689Z,10.84
2022-12-23T04:14:30.336Z,10.95
2022-12-23T04:19:31.746Z,10.90
2022-12-23T04:24:33.191Z,10.87
2022-12-23T04:29:34.782Z,10.99
2022-12-23T04:34:36.431Z,11.07
2022-12-23T04:39:37.747Z,11.03
2022-12-23T04:44:39.058Z,10.87
2022-12-23T04:49:40.454Z,10.81
2022-12-23T04:54:46.051Z,10.71
2022-12-23T04:59:47.860Z,10.73
2022-12-23T05:04:49.218Z,10.67
2022-12-23T05:09:50.531Z,10.59
2022-12-23T05:14:51.843Z,10.58
2022-12-23T05:19:53.203Z,10.62
2022-12-23T05:24:54.537Z,10.67
2022-12-23T05:29:55.840Z,10.67
2022-12-23T05:34:57.169Z,10.74
2022-12-23T05:39:58.489Z,10.75
2022-12-23T05:44:59.848Z,10.78
2022-12-23T05:50:01.581Z,10.82
2022-12-23T05:55:03.773Z,10.83
2022-12-23T06:00:05.599Z,10.81
2022-12-23T06:05:07.360Z,10.77
2022-12-23T06:10:09.885Z,10.77
2022-12-23T06:15:11.694Z,10.75
2022-12-23T06:20:19.935Z,10.68
2022-12-23T06:25:22.167Z,10.70
2022-12-23T06:30:23.509Z,10.65
2022-12-23T06:35:24.869Z,10.65
2022-12-23T06:40:28.309Z,10.57
2022-12-23T06:45:29.757Z,10.48
2022-12-23T06:50:31.083Z,10.46
2022-12-23T06:55:32.765Z,10.40
2022-12-23T07:00:34.282Z,10.42
2022-12-23T07:05:37.537Z,10.43
2022-12-23T07:10:39.168Z,10.44
2022-12-23T07:15:40.500Z,10.52
2022-12-23T07:20:42.254Z,10.64
2022-12-23T07:25:44.235Z,10.79
2022-12-23T07:30:45.540Z,10.96
2022-12-23T07:35:46.867Z,11.00
2022-12-23T07:40:48.948Z,11.03
2022-12-23T07:45:55.630Z,11.16
2022-12-23T07:51:04.500Z,11.25
2022-12-23T07:56:06.137Z,11.32
2022-12-23T08:01:07.994Z,11.36
2022-12-23T08:06:15.166Z,11.39
2022-12-23T08:11:16.731Z,11.40
2022-12-23T08:16:18.624Z,11.39
2022-12-23T08:21:20.200Z,11.47
2022-12-23T08:26:24.002Z,11.52
2022-12-23T08:31:27.955Z,11.57
2022-12-23T08:36:32.070Z,11.56
2022-12-23T08:41:37.358Z,11.61
2022-12-23T08:52:20.635Z,11.68
2022-12-23T08:57:22.226Z,11.71
2022-12-23T09:02:24.134Z,11.75
2022-12-23T09:07:25.759Z,11.76
2022-12-23T09:12:27.383Z,11.78
2022-12-23T09:17:31.005Z,11.80
2022-12-23T09:22:36.539Z,11.76
2022-12-23T09:27:40.635Z,11.67
2022-12-23T09:32:42.460Z,11.76
2022-12-23T09:37:44.062Z,11.73
2022-12-23T09:43:03.300Z,11.86
2022-12-23T09:48:11.987Z,11.99
2022-12-23T09:53:18.217Z,12.07
2022-12-23T09:58:47.113Z,12.08
2022-12-23T10:04:15.866Z,12.04
2022-12-23T10:09:18.666Z,12.00
2022-12-23T10:14:32.052Z,12.15
2022-12-23T10:19:42.025Z,12.23
2022-12-23T10:24:46.045Z,12.30
2022-12-23T10:29:47.615Z,12.13
2022-12-23T10:34:59.349Z,12.10
2022-12-23T10:40:20.884Z,11.95
2022-12-23T10:45:31.743Z,12.01
2022-12-23T10:50:51.839Z,12.02
2022-12-23T10:55:56.115Z,11.92
2022-12-23T11:01:00.302Z,11.88
2022-12-23T11:06:02.966Z,11.93
2022-12-23T11:11:06.144Z,11.94
2022-12-23T11:16:28.675Z,11.95
2022-12-23T11:21:32.234Z,11.84
2022-12-23T11:26:36.462Z,11.79
2022-12-23T11:31:38.538Z,11.80
2022-12-23T11:36:41.698Z,11.73
2022-12-23T11:41:49.625Z,11.75
2022-12-23T11:46:52.132Z,11.78
2022-12-23T11:52:06.059Z,11.83
2022-12-23T11:57:17.210Z,11.88
2022-12-23T12:02:31.833Z,11.85
2022-12-23T12:07:33.565Z,11.95
2022-12-23T12:12:34.931Z,12.08
2022-12-23T12:17:49.677Z,12.06
2022-12-23T12:23:09.045Z,12.03
2022-12-23T12:28:24.736Z,12.09
2022-12-23T12:33:35.853Z,12.09
2022-12-23T12:38:38.886Z,12.12
2022-12-23T12:43:46.435Z,12.10
2022-12-23T12:49:00.915Z,12.07
2022-12-23T12:54:19.888Z,12.20
2022-12-23T12:59:26.088Z,12.23
2022-12-23T13:04:42.315Z,12.30
2022-12-23T13:09:53.290Z,12.36
2022-12-23T13:15:11.631Z,12.39
2022-12-23T13:20:27.498Z,12.41
2022-12-23T13:25:42.288Z,12.42
2022-12-23T13:30:54.165Z,12.46
2022-12-23T13:36:46.755Z,12.46
2022-12-23T13:41:58.561Z,12.30
2022-12-23T13:47:34.932Z,12.31
2022-12-23T13:53:01.173Z,12.40
2022-12-23T13:58:16.563Z,12.06
2022-12-23T14:03:22.719Z,11.80
2022-12-23T14:08:42.723Z,11.83
2022-12-23T14:13:55.058Z,11.85
2022-12-23T14:19:40.512Z,11.71
2022-12-23T14:25:30.498Z,11.66
2022-12-23T14:30:37.210Z,11.85
2022-12-23T14:35:42.869Z,11.86
2022-12-23T14:40:59.422Z,11.80
2022-12-23T14:46:06.080Z,11.86
2022-12-23T14:51:10.262Z,11.99
2022-12-23T14:56:14.445Z,11.92
2022-12-23T15:01:19.367Z,11.69
2022-12-23T15:06:28.416Z,11.41
2022-12-23T15:11:32.903Z,11.30
2022-12-23T15:16:37.508Z,11.25
2022-12-23T15:21:39.042Z,11.44
2022-12-23T15:26:51.878Z,11.60
2022-12-23T15:32:02.293Z,11.62
2022-12-23T15:37:03.843Z,11.63
2022-12-23T15:42:25.884Z,11.89
2022-12-23T15:47:36.989Z,12.04
2022-12-23T15:52:40.533Z,12.02
2022-12-23T15:57:50.686Z,12.02
2022-12-23T16:03:04.059Z,12.00
2022-12-23T16:08:13.777Z,12.00
2022-12-23T16:13:19.899Z,12.05
2022-12-23T16:18:21.233Z,12.10
2022-12-23T16:23:24.156Z,12.09
2022-12-23T16:28:29.822Z,12.00
2022-12-23T16:33:53.254Z,12.07
2022-12-23T16:39:06.902Z,12.10
2022-12-23T16:44:08.315Z,12.04
2022-12-23T16:49:15.564Z,12.07
2022-12-23T16:54:19.218Z,12.16
2022-12-23T16:59:21.013Z,12.24
2022-12-23T17:04:22.399Z,12.25
2022-12-23T17:09:23.717Z,12.41
2022-12-23T17:14:25.693Z,12.52
2022-12-23T17:19:28.964Z,12.59
2022-12-23T17:24:31.401Z,12.66
2022-12-23T17:29:32.766Z,12.71
2022-12-23T17:34:34.089Z,12.72
2022-12-23T17:39:35.426Z,12.76
2022-12-23T17:44:36.772Z,12.73
2022-12-23T17:49:38.087Z,12.74
2022-12-23T17:54:39.702Z,12.67
2022-12-23T17:59:41.045Z,12.73
2022-12-23T18:04:42.354Z,12.71
2022-12-23T18:09:43.775Z,12.75
2022-12-23T18:14:45.105Z,12.67
2022-12-23T18:19:46.522Z,12.66
2022-12-23T18:24:53.811Z,12.61
2022-12-23T18:29:58.417Z,12.61
2022-12-23T18:34:59.780Z,12.58
2022-12-23T18:40:01.184Z,12.50
2022-12-23T18:45:02.515Z,12.42
2022-12-23T18:50:04.109Z,12.38
2022-12-23T18:55:06.957Z,12.29
2022-12-23T19:00:16.587Z,12.19
2022-12-23T19:05:27.017Z,12.19
2022-12-23T19:10:33.072Z,12.18
2022-12-23T19:15:34.416Z,12.14
2022-12-23T19:20:35.800Z,12.13
2022-12-23T19:25:41.271Z,12.13
2022-12-23T19:30:42.700Z,12.15
2022-12-23T19:35:44.223Z,12.19
2022-12-23T19:40:45.549Z,12.19
2022-12-23T19:45:56.580Z,12.22
2022-12-23T19:51:00.075Z,12.26
2022-12-23T19:56:05.700Z,12.30
2022-12-23T20:01:13.891Z,12.30
2022-12-23T20:06:18.949Z,12.33
2022-12-23T20:11:23.354Z,12.37
2022-12-23T20:16:25.433Z,12.36
2022-12-23T20:21:26.824Z,12.34
2022-12-23T20:26:29.025Z,12.30
2022-12-23T20:31:33.085Z,12.27
2022-12-23T20:36:36.334Z,12.30
2022-12-23T20:41:37.863Z,12.34
2022-12-23T20:46:39.469Z,12.33
2022-12-23T20:51:40.920Z,12.33
2022-12-23T20:56:42.303Z,12.37
2022-12-23T21:01:44.101Z,12.36
2022-12-23T21:06:45.662Z,12.41
2022-12-23T21:11:47.848Z,12.43
2022-12-23T21:16:49.378Z,12.39
2022-12-23T21:21:52.194Z,12.40
2022-12-23T21:26:56.725Z,12.42
2022-12-23T21:31:59.629Z,12.40
2022-12-23T21:37:01.163Z,12.39
2022-12-23T21:42:02.514Z,12.38
2022-12-23T21:47:03.983Z,12.28
2022-12-23T21:52:05.361Z,12.25
2022-12-23T21:57:06.723Z,12.28
2022-12-23T22:02:14.715Z,12.26
2022-12-23T22:07:16.087Z,12.33
2022-12-23T22:12:17.408Z,12.21
2022-12-23T22:17:18.725Z,12.18
2022-12-23T22:22:20.066Z,12.12
2022-12-23T22:27:21.386Z,11.97
2022-12-23T22:32:23.560Z,11.92
2022-12-23T22:37:25.006Z,11.93
2022-12-23T22:42:26.369Z,11.95
2022-12-23T22:47:27.693Z,11.91
2022-12-23T22:52:29.070Z,11.93
2022-12-23T22:57:30.445Z,11.97
2022-12-23T23:02:31.873Z,11.93
2022-12-23T23:07:33.199Z,11.97
2022-12-23T23:12:34.515Z,12.00
2022-12-23T23:17:36.286Z,12.11
2022-12-23T23:22:37.655Z,12.08
2022-12-23T23:27:38.983Z,12.08
2022-12-23T23:32:40.332Z,12.06
2022-12-23T23:37:41.716Z,12.08
2022-12-23T23:42:43.069Z,12.06
2022-12-23T23:47:44.480Z,12.15
2022-12-23T23:52:46.871Z,12.22
2022-12-23T23:57:48.318Z,12.30
